sensor_id;sensor_type;location;lat;lon;timestamp;P1;durP1;ratioP1;P2;durP2;ratioP2
7493;SDS011;3788;49.902;8.590;2023-03-01T00:00:40;9.73;;;7.37;;
7493;SDS011;3788;49.902;8.590;2023-03-01T00:03:11;10.73;;;7.40;;
7493;SDS011;3788;49.902;8.590;2023-03-01T00:05:43;11.00;;;8.17;;
7493;SDS011;3788;49.902;8.590;2023-03-01T00:08:10;11.03;;;7.47;;
7493;SDS011;3788;49.902;8.590;2023-03-01T00:10:37;10.17;;;7.87;;
7493;SDS011;3788;49.902;8.590;2023-03-01T00:13:04;10.00;;;7.80;;
7493;SDS011;3788;49.902;8.590;2023-03-01T00:15:31;10.30;;;7.67;;
7493;SDS011;3788;49.902;8.590;2023-03-01T00:18:00;11.60;;;7.70;;
7493;SDS011;3788;49.902;8.590;2023-03-01T00:20:27;11.60;;;7.43;;
7493;SDS011;3788;49.902;8.590;2023-03-01T00:22:53;10.30;;;7.67;;
7493;SDS011;3788;49.902;8.590;2023-03-01T00:25:20;11.40;;;7.67;;
7493;SDS011;3788;49.902;8.590;2023-03-01T00:27:47;11.17;;;7.77;;
7493;SDS011;3788;49.902;8.590;2023-03-01T00:30:14;13.13;;;9.27;;
7493;SDS011;3788;49.902;8.590;2023-03-01T00:32:42;11.13;;;8.17;;
7493;SDS011;3788;49.902;8.590;2023-03-01T00:35:10;12.83;;;8.97;;
7493;SDS011;3788;49.902;8.590;2023-03-01T00:37:36;13.97;;;8.77;;
7493;SDS011;3788;49.902;8.590;2023-03-01T00:40:03;9.47;;;7.10;;
7493;SDS011;3788;49.902;8.590;2023-03-01T00:42:32;11.53;;;7.70;;
7493;SDS011;3788;49.902;8.590;2023-03-01T00:44:58;9.33;;;7.57;;
7493;SDS011;3788;49.902;8.590;2023-03-01T00:47:25;9.50;;;7.17;;
7493;SDS011;3788;49.902;8.590;2023-03-01T00:49:54;10.53;;;7.83;;
7493;SDS011;3788;49.902;8.590;2023-03-01T00:52:22;10.53;;;7.67;;
7493;SDS011;3788;49.902;8.590;2023-03-01T00:54:51;9.93;;;8.17;;
7493;SDS011;3788;49.902;8.590;2023-03-01T00:57:18;11.23;;;7.73;;
7493;SDS011;3788;49.902;8.590;2023-03-01T00:59:45;11.43;;;7.40;;
7493;SDS011;3788;49.902;8.590;2023-03-01T01:02:11;9.97;;;8.10;;
7493;SDS011;3788;49.902;8.590;2023-03-01T01:04:38;11.47;;;7.77;;
7493;SDS011;3788;49.902;8.590;2023-03-01T01:07:05;10.23;;;7.40;;
7493;SDS011;3788;49.902;8.590;2023-03-01T01:09:33;8.17;;;7.23;;
7493;SDS011;3788;49.902;8.590;2023-03-01T01:12:00;8.93;;;7.37;;
7493;SDS011;3788;49.902;8.590;2023-03-01T01:14:27;9.20;;;7.50;;
7493;SDS011;3788;49.902;8.590;2023-03-01T01:16:54;8.47;;;7.00;;
7493;SDS011;3788;49.902;8.590;2023-03-01T01:19:21;9.80;;;7.37;;
7493;SDS011;3788;49.902;8.590;2023-03-01T01:21:48;10.67;;;7.90;;
7493;SDS011;3788;49.902;8.590;2023-03-01T01:24:15;10.93;;;7.90;;
7493;SDS011;3788;49.902;8.590;2023-03-01T01:26:44;9.00;;;7.33;;
7493;SDS011;3788;49.902;8.590;2023-03-01T01:29:12;10.57;;;7.70;;
7493;SDS011;3788;49.902;8.590;2023-03-01T01:31:39;10.07;;;7.70;;
7493;SDS011;3788;49.902;8.590;2023-03-01T01:34:08;9.53;;;7.53;;
7493;SDS011;3788;49.902;8.590;2023-03-01T01:36:40;11.10;;;8.53;;
7493;SDS011;3788;49.902;8.590;2023-03-01T01:39:06;11.47;;;8.57;;
7493;SDS011;3788;49.902;8.590;2023-03-01T01:41:38;10.47;;;7.90;;
7493;SDS011;3788;49.902;8.590;2023-03-01T01:44:13;11.63;;;8.43;;
7493;SDS011;3788;49.902;8.590;2023-03-01T01:46:42;11.43;;;8.17;;
7493;SDS011;3788;49.902;8.590;2023-03-01T01:49:16;11.43;;;8.50;;
7493;SDS011;3788;49.902;8.590;2023-03-01T01:51:48;11.53;;;8.77;;
7493;SDS011;3788;49.902;8.590;2023-03-01T01:54:20;12.30;;;9.00;;
7493;SDS011;3788;49.902;8.590;2023-03-01T01:56:50;12.97;;;8.60;;
7493;SDS011;3788;49.902;8.590;2023-03-01T01:59:23;12.50;;;9.43;;
7493;SDS011;3788;49.902;8.590;2023-03-01T02:01:51;11.07;;;8.17;;
7493;SDS011;3788;49.902;8.590;2023-03-01T02:04:18;12.10;;;8.40;;
7493;SDS011;3788;49.902;8.590;2023-03-01T02:06:46;11.87;;;8.70;;
7493;SDS011;3788;49.902;8.590;2023-03-01T02:09:17;14.67;;;9.20;;
7493;SDS011;3788;49.902;8.590;2023-03-01T02:11:46;12.47;;;9.50;;
7493;SDS011;3788;49.902;8.590;2023-03-01T02:14:14;12.40;;;8.57;;
7493;SDS011;3788;49.902;8.590;2023-03-01T02:16:43;12.67;;;8.40;;
7493;SDS011;3788;49.902;8.590;2023-03-01T02:19:10;12.43;;;9.30;;
7493;SDS011;3788;49.902;8.590;2023-03-01T02:21:42;12.53;;;8.53;;
7493;SDS011;3788;49.902;8.590;2023-03-01T02:24:19;13.13;;;8.50;;
7493;SDS011;3788;49.902;8.590;2023-03-01T02:26:56;11.93;;;8.17;;
7493;SDS011;3788;49.902;8.590;2023-03-01T02:29:25;10.73;;;8.40;;
7493;SDS011;3788;49.902;8.590;2023-03-01T02:31:54;12.10;;;9.03;;
7493;SDS011;3788;49.902;8.590;2023-03-01T02:34:23;10.43;;;8.70;;
7493;SDS011;3788;49.902;8.590;2023-03-01T02:36:52;11.87;;;9.17;;
7493;SDS011;3788;49.902;8.590;2023-03-01T02:39:24;12.27;;;8.23;;
7493;SDS011;3788;49.902;8.590;2023-03-01T02:41:53;10.20;;;8.30;;
7493;SDS011;3788;49.902;8.590;2023-03-01T02:44:22;12.37;;;9.43;;
7493;SDS011;3788;49.902;8.590;2023-03-01T02:46:51;12.83;;;9.43;;
7493;SDS011;3788;49.902;8.590;2023-03-01T02:49:19;13.53;;;9.23;;
7493;SDS011;3788;49.902;8.590;2023-03-01T02:51:52;11.43;;;9.30;;
7493;SDS011;3788;49.902;8.590;2023-03-01T02:54:29;11.97;;;8.93;;
7493;SDS011;3788;49.902;8.590;2023-03-01T02:56:59;12.70;;;8.97;;
7493;SDS011;3788;49.902;8.590;2023-03-01T02:59:29;11.30;;;8.70;;
7493;SDS011;3788;49.902;8.590;2023-03-01T03:02:04;10.73;;;8.70;;
7493;SDS011;3788;49.902;8.590;2023-03-01T03:04:30;13.70;;;9.33;;
7493;SDS011;3788;49.902;8.590;2023-03-01T03:06:57;12.30;;;9.03;;
7493;SDS011;3788;49.902;8.590;2023-03-01T03:09:24;11.37;;;8.90;;
7493;SDS011;3788;49.902;8.590;2023-03-01T03:11:51;10.73;;;8.87;;
7493;SDS011;3788;49.902;8.590;2023-03-01T03:14:17;11.30;;;8.50;;
7493;SDS011;3788;49.902;8.590;2023-03-01T03:16:46;13.23;;;8.93;;
7493;SDS011;3788;49.902;8.590;2023-03-01T03:19:14;14.07;;;9.10;;
7493;SDS011;3788;49.902;8.590;2023-03-01T03:21:41;11.67;;;9.37;;
7493;SDS011;3788;49.902;8.590;2023-03-01T03:24:08;13.50;;;9.67;;
7493;SDS011;3788;49.902;8.590;2023-03-01T03:26:35;12.00;;;8.67;;
7493;SDS011;3788;49.902;8.590;2023-03-01T03:29:02;12.90;;;9.57;;
7493;SDS011;3788;49.902;8.590;2023-03-01T03:31:28;12.20;;;9.23;;
7493;SDS011;3788;49.902;8.590;2023-03-01T03:33:56;12.93;;;9.63;;
7493;SDS011;3788;49.902;8.590;2023-03-01T03:36:25;14.20;;;10.07;;
7493;SDS011;3788;49.902;8.590;2023-03-01T03:38:52;13.50;;;9.57;;
7493;SDS011;3788;49.902;8.590;2023-03-01T03:41:19;11.53;;;8.80;;
7493;SDS011;3788;49.902;8.590;2023-03-01T03:43:46;12.00;;;9.77;;
7493;SDS011;3788;49.902;8.590;2023-03-01T03:46:13;13.97;;;9.93;;
7493;SDS011;3788;49.902;8.590;2023-03-01T03:48:42;13.43;;;9.60;;
7493;SDS011;3788;49.902;8.590;2023-03-01T03:51:12;16.50;;;10.40;;
7493;SDS011;3788;49.902;8.590;2023-03-01T03:53:39;14.53;;;9.50;;
7493;SDS011;3788;49.902;8.590;2023-03-01T03:56:07;12.90;;;9.47;;
7493;SDS011;3788;49.902;8.590;2023-03-01T03:58:34;13.27;;;9.90;;
7493;SDS011;3788;49.902;8.590;2023-03-01T04:01:00;14.80;;;10.17;;
7493;SDS011;3788;49.902;8.590;2023-03-01T04:03:28;13.93;;;10.17;;
7493;SDS011;3788;49.902;8.590;2023-03-01T04:05:56;13.47;;;10.57;;
7493;SDS011;3788;49.902;8.590;2023-03-01T04:08:25;14.97;;;10.40;;
7493;SDS011;3788;49.902;8.590;2023-03-01T04:10:56;15.97;;;9.80;;
7493;SDS011;3788;49.902;8.590;2023-03-01T04:13:24;11.17;;;9.27;;
7493;SDS011;3788;49.902;8.590;2023-03-01T04:15:51;13.13;;;10.47;;
7493;SDS011;3788;49.902;8.590;2023-03-01T04:18:19;13.30;;;9.13;;
7493;SDS011;3788;49.902;8.590;2023-03-01T04:20:47;14.23;;;9.90;;
7493;SDS011;3788;49.902;8.590;2023-03-01T04:23:17;15.70;;;9.73;;
7493;SDS011;3788;49.902;8.590;2023-03-01T04:25:47;13.03;;;9.27;;
7493;SDS011;3788;49.902;8.590;2023-03-01T04:28:19;14.47;;;9.07;;
7493;SDS011;3788;49.902;8.590;2023-03-01T04:30:46;15.43;;;10.10;;
7493;SDS011;3788;49.902;8.590;2023-03-01T04:33:13;14.97;;;9.90;;
7493;SDS011;3788;49.902;8.590;2023-03-01T04:35:39;16.47;;;10.87;;
7493;SDS011;3788;49.902;8.590;2023-03-01T04:38:06;14.60;;;10.17;;
7493;SDS011;3788;49.902;8.590;2023-03-01T04:40:33;15.23;;;10.33;;
7493;SDS011;3788;49.902;8.590;2023-03-01T04:43:02;14.00;;;10.37;;
7493;SDS011;3788;49.902;8.590;2023-03-01T04:45:29;15.53;;;10.70;;
7493;SDS011;3788;49.902;8.590;2023-03-01T04:47:57;11.90;;;10.27;;
7493;SDS011;3788;49.902;8.590;2023-03-01T04:50:24;13.13;;;10.20;;
7493;SDS011;3788;49.902;8.590;2023-03-01T04:52:51;14.20;;;10.87;;
7493;SDS011;3788;49.902;8.590;2023-03-01T04:55:18;14.27;;;10.80;;
7493;SDS011;3788;49.902;8.590;2023-03-01T04:57:45;14.33;;;9.80;;
7493;SDS011;3788;49.902;8.590;2023-03-01T05:00:13;18.63;;;11.00;;
7493;SDS011;3788;49.902;8.590;2023-03-01T05:02:47;12.37;;;10.23;;
7493;SDS011;3788;49.902;8.590;2023-03-01T05:05:18;13.97;;;9.50;;
7493;SDS011;3788;49.902;8.590;2023-03-01T05:07:45;13.40;;;9.97;;
7493;SDS011;3788;49.902;8.590;2023-03-01T05:10:12;16.40;;;11.10;;
7493;SDS011;3788;49.902;8.590;2023-03-01T05:12:39;14.03;;;10.27;;
7493;SDS011;3788;49.902;8.590;2023-03-01T05:15:06;11.83;;;9.60;;
7493;SDS011;3788;49.902;8.590;2023-03-01T05:17:34;16.00;;;10.43;;
7493;SDS011;3788;49.902;8.590;2023-03-01T05:20:01;13.60;;;10.97;;
7493;SDS011;3788;49.902;8.590;2023-03-01T05:22:31;14.63;;;10.03;;
7493;SDS011;3788;49.902;8.590;2023-03-01T05:25:01;14.63;;;10.30;;
7493;SDS011;3788;49.902;8.590;2023-03-01T05:27:28;14.20;;;9.60;;
7493;SDS011;3788;49.902;8.590;2023-03-01T05:29:56;14.60;;;10.33;;
7493;SDS011;3788;49.902;8.590;2023-03-01T05:32:22;13.50;;;8.90;;
7493;SDS011;3788;49.902;8.590;2023-03-01T05:34:51;12.83;;;9.87;;
7493;SDS011;3788;49.902;8.590;2023-03-01T05:37:19;14.73;;;11.10;;
7493;SDS011;3788;49.902;8.590;2023-03-01T05:39:46;13.13;;;9.77;;
7493;SDS011;3788;49.902;8.590;2023-03-01T05:42:15;12.17;;;9.17;;
7493;SDS011;3788;49.902;8.590;2023-03-01T05:44:42;14.63;;;10.03;;
7493;SDS011;3788;49.902;8.590;2023-03-01T05:47:08;13.67;;;10.57;;
7493;SDS011;3788;49.902;8.590;2023-03-01T05:49:35;12.80;;;10.37;;
7493;SDS011;3788;49.902;8.590;2023-03-01T05:52:03;15.17;;;10.17;;
7493;SDS011;3788;49.902;8.590;2023-03-01T05:54:30;13.27;;;9.87;;
7493;SDS011;3788;49.902;8.590;2023-03-01T05:56:58;12.27;;;9.17;;
7493;SDS011;3788;49.902;8.590;2023-03-01T05:59:24;13.77;;;10.20;;
7493;SDS011;3788;49.902;8.590;2023-03-01T06:01:51;12.53;;;9.33;;
7493;SDS011;3788;49.902;8.590;2023-03-01T06:04:18;12.33;;;9.47;;
7493;SDS011;3788;49.902;8.590;2023-03-01T06:06:46;13.13;;;9.13;;
7493;SDS011;3788;49.902;8.590;2023-03-01T06:09:14;13.77;;;9.57;;
7493;SDS011;3788;49.902;8.590;2023-03-01T06:11:40;12.37;;;8.83;;
7493;SDS011;3788;49.902;8.590;2023-03-01T06:14:07;13.70;;;10.03;;
7493;SDS011;3788;49.902;8.590;2023-03-01T06:16:35;11.20;;;9.50;;
7493;SDS011;3788;49.902;8.590;2023-03-01T06:19:03;13.20;;;9.20;;
7493;SDS011;3788;49.902;8.590;2023-03-01T06:21:30;13.90;;;9.43;;
7493;SDS011;3788;49.902;8.590;2023-03-01T06:23:57;10.93;;;8.37;;
7493;SDS011;3788;49.902;8.590;2023-03-01T06:26:25;12.70;;;8.70;;
7493;SDS011;3788;49.902;8.590;2023-03-01T06:28:52;12.57;;;8.80;;
7493;SDS011;3788;49.902;8.590;2023-03-01T06:31:18;11.50;;;8.70;;
7493;SDS011;3788;49.902;8.590;2023-03-01T06:33:45;10.80;;;8.43;;
7493;SDS011;3788;49.902;8.590;2023-03-01T06:36:12;11.00;;;8.63;;
7493;SDS011;3788;49.902;8.590;2023-03-01T06:38:38;11.23;;;8.63;;
7493;SDS011;3788;49.902;8.590;2023-03-01T06:41:06;11.93;;;9.23;;
7493;SDS011;3788;49.902;8.590;2023-03-01T06:43:34;12.27;;;9.27;;
7493;SDS011;3788;49.902;8.590;2023-03-01T06:46:03;11.33;;;8.57;;
7493;SDS011;3788;49.902;8.590;2023-03-01T06:48:31;11.10;;;9.17;;
7493;SDS011;3788;49.902;8.590;2023-03-01T06:50:59;13.93;;;9.40;;
7493;SDS011;3788;49.902;8.590;2023-03-01T06:53:26;13.37;;;9.93;;
7493;SDS011;3788;49.902;8.590;2023-03-01T06:55:54;13.90;;;9.97;;
7493;SDS011;3788;49.902;8.590;2023-03-01T06:58:21;11.60;;;9.30;;
7493;SDS011;3788;49.902;8.590;2023-03-01T07:00:49;14.20;;;9.17;;
7493;SDS011;3788;49.902;8.590;2023-03-01T07:03:15;12.77;;;9.13;;
7493;SDS011;3788;49.902;8.590;2023-03-01T07:05:42;16.60;;;11.00;;
7493;SDS011;3788;49.902;8.590;2023-03-01T07:08:09;17.87;;;12.73;;
7493;SDS011;3788;49.902;8.590;2023-03-01T07:10:36;19.03;;;12.23;;
7493;SDS011;3788;49.902;8.590;2023-03-01T07:13:03;17.73;;;12.07;;
7493;SDS011;3788;49.902;8.590;2023-03-01T07:15:31;16.13;;;11.17;;
7493;SDS011;3788;49.902;8.590;2023-03-01T07:18:00;14.30;;;10.63;;
7493;SDS011;3788;49.902;8.590;2023-03-01T07:20:26;12.20;;;10.03;;
7493;SDS011;3788;49.902;8.590;2023-03-01T07:22:53;16.27;;;11.40;;
7493;SDS011;3788;49.902;8.590;2023-03-01T07:25:23;11.87;;;9.30;;
7493;SDS011;3788;49.902;8.590;2023-03-01T07:27:50;13.77;;;9.43;;
7493;SDS011;3788;49.902;8.590;2023-03-01T07:30:17;15.00;;;10.40;;
7493;SDS011;3788;49.902;8.590;2023-03-01T07:32:44;13.10;;;10.23;;
7493;SDS011;3788;49.902;8.590;2023-03-01T07:35:12;14.53;;;10.83;;
7493;SDS011;3788;49.902;8.590;2023-03-01T07:37:39;14.43;;;10.97;;
7493;SDS011;3788;49.902;8.590;2023-03-01T07:40:07;15.27;;;10.90;;
7493;SDS011;3788;49.902;8.590;2023-03-01T07:42:35;14.17;;;10.03;;
7493;SDS011;3788;49.902;8.590;2023-03-01T07:45:02;14.53;;;10.43;;
7493;SDS011;3788;49.902;8.590;2023-03-01T07:47:29;14.30;;;10.33;;
7493;SDS011;3788;49.902;8.590;2023-03-01T07:49:56;14.13;;;9.97;;
7493;SDS011;3788;49.902;8.590;2023-03-01T07:52:24;14.43;;;9.60;;
7493;SDS011;3788;49.902;8.590;2023-03-01T07:54:51;15.93;;;10.70;;
7493;SDS011;3788;49.902;8.590;2023-03-01T07:57:17;11.73;;;9.97;;
7493;SDS011;3788;49.902;8.590;2023-03-01T07:59:44;12.90;;;9.27;;
7493;SDS011;3788;49.902;8.590;2023-03-01T08:02:11;18.10;;;10.30;;
7493;SDS011;3788;49.902;8.590;2023-03-01T08:04:40;12.57;;;9.47;;
7493;SDS011;3788;49.902;8.590;2023-03-01T08:07:06;15.10;;;10.27;;
7493;SDS011;3788;49.902;8.590;2023-03-01T08:09:35;12.03;;;9.30;;
7493;SDS011;3788;49.902;8.590;2023-03-01T08:12:02;14.43;;;9.70;;
7493;SDS011;3788;49.902;8.590;2023-03-01T08:14:29;13.90;;;10.23;;
7493;SDS011;3788;49.902;8.590;2023-03-01T08:16:56;14.03;;;10.00;;
7493;SDS011;3788;49.902;8.590;2023-03-01T08:19:23;14.23;;;9.27;;
7493;SDS011;3788;49.902;8.590;2023-03-01T08:21:49;13.13;;;9.00;;
7493;SDS011;3788;49.902;8.590;2023-03-01T08:24:16;14.37;;;9.63;;
7493;SDS011;3788;49.902;8.590;2023-03-01T08:26:44;13.67;;;9.37;;
7493;SDS011;3788;49.902;8.590;2023-03-01T08:29:11;13.00;;;9.57;;
7493;SDS011;3788;49.902;8.590;2023-03-01T08:31:39;12.57;;;9.13;;
7493;SDS011;3788;49.902;8.590;2023-03-01T08:34:07;9.60;;;8.57;;
7493;SDS011;3788;49.902;8.590;2023-03-01T08:36:36;14.27;;;10.00;;
7493;SDS011;3788;49.902;8.590;2023-03-01T08:39:06;12.40;;;10.00;;
7493;SDS011;3788;49.902;8.590;2023-03-01T08:41:34;16.97;;;10.90;;
7493;SDS011;3788;49.902;8.590;2023-03-01T08:44:02;13.27;;;10.07;;
7493;SDS011;3788;49.902;8.590;2023-03-01T08:46:29;12.67;;;9.57;;
7493;SDS011;3788;49.902;8.590;2023-03-01T08:48:58;15.30;;;10.20;;
7493;SDS011;3788;49.902;8.590;2023-03-01T08:51:25;13.83;;;10.57;;
7493;SDS011;3788;49.902;8.590;2023-03-01T08:53:52;13.17;;;9.50;;
7493;SDS011;3788;49.902;8.590;2023-03-01T08:56:19;11.63;;;9.03;;
7493;SDS011;3788;49.902;8.590;2023-03-01T08:58:47;11.90;;;9.13;;
7493;SDS011;3788;49.902;8.590;2023-03-01T09:01:16;12.03;;;9.87;;
7493;SDS011;3788;49.902;8.590;2023-03-01T09:03:44;12.87;;;9.70;;
7493;SDS011;3788;49.902;8.590;2023-03-01T09:06:11;13.33;;;9.00;;
7493;SDS011;3788;49.902;8.590;2023-03-01T09:08:39;14.60;;;10.30;;
7493;SDS011;3788;49.902;8.590;2023-03-01T09:11:08;14.40;;;9.80;;
7493;SDS011;3788;49.902;8.590;2023-03-01T09:13:36;13.47;;;10.30;;
7493;SDS011;3788;49.902;8.590;2023-03-01T09:16:04;12.37;;;10.20;;
7493;SDS011;3788;49.902;8.590;2023-03-01T09:18:34;13.03;;;9.50;;
7493;SDS011;3788;49.902;8.590;2023-03-01T09:21:02;12.83;;;9.47;;
7493;SDS011;3788;49.902;8.590;2023-03-01T09:23:32;13.60;;;9.27;;
7493;SDS011;3788;49.902;8.590;2023-03-01T09:25:59;12.70;;;9.17;;
7493;SDS011;3788;49.902;8.590;2023-03-01T09:28:25;14.93;;;10.47;;
7493;SDS011;3788;49.902;8.590;2023-03-01T09:30:52;12.20;;;9.67;;
7493;SDS011;3788;49.902;8.590;2023-03-01T09:33:19;13.60;;;10.30;;
7493;SDS011;3788;49.902;8.590;2023-03-01T09:35:47;11.23;;;8.80;;
7493;SDS011;3788;49.902;8.590;2023-03-01T09:38:13;12.53;;;9.70;;
7493;SDS011;3788;49.902;8.590;2023-03-01T09:40:43;12.17;;;10.07;;
7493;SDS011;3788;49.902;8.590;2023-03-01T09:43:15;12.70;;;9.77;;
7493;SDS011;3788;49.902;8.590;2023-03-01T09:45:47;13.53;;;10.10;;
7493;SDS011;3788;49.902;8.590;2023-03-01T09:48:17;13.63;;;10.13;;
7493;SDS011;3788;49.902;8.590;2023-03-01T09:50:48;16.37;;;10.63;;
7493;SDS011;3788;49.902;8.590;2023-03-01T09:53:16;13.03;;;9.53;;
7493;SDS011;3788;49.902;8.590;2023-03-01T09:55:46;14.23;;;9.70;;
7493;SDS011;3788;49.902;8.590;2023-03-01T09:58:29;13.47;;;10.70;;
7493;SDS011;3788;49.902;8.590;2023-03-01T10:01:02;15.53;;;10.83;;
7493;SDS011;3788;49.902;8.590;2023-03-01T10:03:37;14.80;;;11.43;;
7493;SDS011;3788;49.902;8.590;2023-03-01T10:06:11;13.33;;;10.10;;
7493;SDS011;3788;49.902;8.590;2023-03-01T10:08:46;13.80;;;11.20;;
7493;SDS011;3788;49.902;8.590;2023-03-01T10:11:21;12.80;;;10.03;;
7493;SDS011;3788;49.902;8.590;2023-03-01T10:13:54;13.47;;;10.97;;
7493;SDS011;3788;49.902;8.590;2023-03-01T10:16:26;14.53;;;10.70;;
7493;SDS011;3788;49.902;8.590;2023-03-01T10:19:00;12.17;;;10.80;;
7493;SDS011;3788;49.902;8.590;2023-03-01T10:21:30;15.87;;;11.17;;
7493;SDS011;3788;49.902;8.590;2023-03-01T10:24:07;14.37;;;11.27;;
7493;SDS011;3788;49.902;8.590;2023-03-01T10:26:38;13.90;;;10.43;;
7493;SDS011;3788;49.902;8.590;2023-03-01T10:29:13;13.47;;;10.40;;
7493;SDS011;3788;49.902;8.590;2023-03-01T10:31:41;15.67;;;11.20;;
7493;SDS011;3788;49.902;8.590;2023-03-01T10:34:11;13.17;;;10.50;;
7493;SDS011;3788;49.902;8.590;2023-03-01T10:36:41;14.60;;;10.83;;
7493;SDS011;3788;49.902;8.590;2023-03-01T10:39:12;13.63;;;10.77;;
7493;SDS011;3788;49.902;8.590;2023-03-01T10:41:52;14.90;;;10.30;;
7493;SDS011;3788;49.902;8.590;2023-03-01T10:47:14;15.13;;;11.33;;
7493;SDS011;3788;49.902;8.590;2023-03-01T10:49:52;13.90;;;10.90;;
7493;SDS011;3788;49.902;8.590;2023-03-01T10:52:23;13.57;;;10.37;;
7493;SDS011;3788;49.902;8.590;2023-03-01T10:54:53;14.40;;;10.03;;
7493;SDS011;3788;49.902;8.590;2023-03-01T10:57:24;15.23;;;11.43;;
7493;SDS011;3788;49.902;8.590;2023-03-01T11:00:00;16.37;;;11.43;;
7493;SDS011;3788;49.902;8.590;2023-03-01T11:02:45;15.37;;;11.77;;
7493;SDS011;3788;49.902;8.590;2023-03-01T11:05:19;16.60;;;11.70;;
7493;SDS011;3788;49.902;8.590;2023-03-01T11:07:50;16.10;;;11.60;;
7493;SDS011;3788;49.902;8.590;2023-03-01T11:10:23;15.70;;;11.47;;
7493;SDS011;3788;49.902;8.590;2023-03-01T11:12:51;13.50;;;10.50;;
7493;SDS011;3788;49.902;8.590;2023-03-01T11:15:20;16.67;;;11.33;;
7493;SDS011;3788;49.902;8.590;2023-03-01T11:17:48;16.83;;;11.30;;
7493;SDS011;3788;49.902;8.590;2023-03-01T11:20:17;15.93;;;12.33;;
7493;SDS011;3788;49.902;8.590;2023-03-01T11:22:52;13.03;;;10.50;;
7493;SDS011;3788;49.902;8.590;2023-03-01T11:25:23;16.63;;;11.93;;
7493;SDS011;3788;49.902;8.590;2023-03-01T11:27:52;13.17;;;10.33;;
7493;SDS011;3788;49.902;8.590;2023-03-01T11:30:20;12.43;;;10.37;;
7493;SDS011;3788;49.902;8.590;2023-03-01T11:32:52;13.47;;;10.70;;
7493;SDS011;3788;49.902;8.590;2023-03-01T11:35:27;12.50;;;10.37;;
7493;SDS011;3788;49.902;8.590;2023-03-01T11:37:59;15.30;;;11.07;;
7493;SDS011;3788;49.902;8.590;2023-03-01T11:40:37;15.07;;;11.27;;
7493;SDS011;3788;49.902;8.590;2023-03-01T11:43:09;14.10;;;10.33;;
7493;SDS011;3788;49.902;8.590;2023-03-01T11:45:47;14.30;;;10.47;;
7493;SDS011;3788;49.902;8.590;2023-03-01T11:48:28;13.33;;;10.43;;
7493;SDS011;3788;49.902;8.590;2023-03-01T11:51:13;13.90;;;10.13;;
7493;SDS011;3788;49.902;8.590;2023-03-01T11:53:50;11.87;;;9.67;;
7493;SDS011;3788;49.902;8.590;2023-03-01T11:56:28;15.03;;;10.63;;
7493;SDS011;3788;49.902;8.590;2023-03-01T11:59:13;14.63;;;10.17;;
7493;SDS011;3788;49.902;8.590;2023-03-01T12:01:59;12.73;;;10.00;;
7493;SDS011;3788;49.902;8.590;2023-03-01T12:04:54;13.57;;;9.90;;
7493;SDS011;3788;49.902;8.590;2023-03-01T12:07:41;12.57;;;9.17;;
7493;SDS011;3788;49.902;8.590;2023-03-01T12:10:19;11.50;;;9.17;;
7493;SDS011;3788;49.902;8.590;2023-03-01T12:12:56;12.07;;;9.53;;
7493;SDS011;3788;49.902;8.590;2023-03-01T12:18:32;13.67;;;9.20;;
7493;SDS011;3788;49.902;8.590;2023-03-01T12:21:13;16.00;;;10.60;;
7493;SDS011;3788;49.902;8.590;2023-03-01T12:23:52;12.37;;;9.17;;
7493;SDS011;3788;49.902;8.590;2023-03-01T12:26:40;12.20;;;8.60;;
7493;SDS011;3788;49.902;8.590;2023-03-01T12:29:23;10.13;;;8.50;;
7493;SDS011;3788;49.902;8.590;2023-03-01T12:31:56;12.13;;;8.80;;
7493;SDS011;3788;49.902;8.590;2023-03-01T12:34:47;11.80;;;9.00;;
7493;SDS011;3788;49.902;8.590;2023-03-01T12:37:29;11.60;;;9.07;;
7493;SDS011;3788;49.902;8.590;2023-03-01T12:40:13;11.03;;;8.43;;
7493;SDS011;3788;49.902;8.590;2023-03-01T12:42:52;10.93;;;7.63;;
7493;SDS011;3788;49.902;8.590;2023-03-01T12:45:34;9.63;;;7.30;;
7493;SDS011;3788;49.902;8.590;2023-03-01T12:48:18;11.47;;;8.47;;
7493;SDS011;3788;49.902;8.590;2023-03-01T12:50:52;8.97;;;7.00;;
7493;SDS011;3788;49.902;8.590;2023-03-01T12:53:22;10.03;;;7.93;;
7493;SDS011;3788;49.902;8.590;2023-03-01T12:55:51;10.57;;;7.37;;
7493;SDS011;3788;49.902;8.590;2023-03-01T12:58:26;9.93;;;7.67;;
7493;SDS011;3788;49.902;8.590;2023-03-01T13:01:02;10.60;;;6.93;;
7493;SDS011;3788;49.902;8.590;2023-03-01T13:03:38;9.90;;;6.90;;
7493;SDS011;3788;49.902;8.590;2023-03-01T13:06:18;10.43;;;7.60;;
7493;SDS011;3788;49.902;8.590;2023-03-01T13:08:48;11.00;;;8.03;;
7493;SDS011;3788;49.902;8.590;2023-03-01T13:11:20;13.10;;;8.50;;
7493;SDS011;3788;49.902;8.590;2023-03-01T13:13:50;12.53;;;9.60;;
7493;SDS011;3788;49.902;8.590;2023-03-01T13:16:20;9.33;;;8.30;;
7493;SDS011;3788;49.902;8.590;2023-03-01T13:19:06;10.57;;;7.97;;
7493;SDS011;3788;49.902;8.590;2023-03-01T13:21:34;11.20;;;9.20;;
7493;SDS011;3788;49.902;8.590;2023-03-01T13:24:01;13.50;;;9.50;;
7493;SDS011;3788;49.902;8.590;2023-03-01T13:26:28;13.27;;;8.87;;
7493;SDS011;3788;49.902;8.590;2023-03-01T13:28:56;10.03;;;7.87;;
7493;SDS011;3788;49.902;8.590;2023-03-01T13:34:39;13.37;;;8.60;;
7493;SDS011;3788;49.902;8.590;2023-03-01T13:37:08;10.37;;;7.70;;
7493;SDS011;3788;49.902;8.590;2023-03-01T13:39:38;10.53;;;8.20;;
7493;SDS011;3788;49.902;8.590;2023-03-01T13:45:14;10.83;;;8.17;;
7493;SDS011;3788;49.902;8.590;2023-03-01T13:47:44;10.13;;;8.20;;
7493;SDS011;3788;49.902;8.590;2023-03-01T13:50:18;9.63;;;7.27;;
7493;SDS011;3788;49.902;8.590;2023-03-01T13:52:48;10.07;;;7.10;;
7493;SDS011;3788;49.902;8.590;2023-03-01T13:55:20;11.27;;;8.17;;
7493;SDS011;3788;49.902;8.590;2023-03-01T13:57:50;11.90;;;7.93;;
7493;SDS011;3788;49.902;8.590;2023-03-01T14:00:36;9.00;;;7.57;;
7493;SDS011;3788;49.902;8.590;2023-03-01T14:03:08;9.43;;;7.10;;
7493;SDS011;3788;49.902;8.590;2023-03-01T14:05:36;11.17;;;8.60;;
7493;SDS011;3788;49.902;8.590;2023-03-01T14:08:05;12.53;;;7.80;;
7493;SDS011;3788;49.902;8.590;2023-03-01T14:10:48;11.03;;;7.50;;
7493;SDS011;3788;49.902;8.590;2023-03-01T14:13:25;11.67;;;7.87;;
7493;SDS011;3788;49.902;8.590;2023-03-01T14:16:11;8.30;;;6.97;;
7493;SDS011;3788;49.902;8.590;2023-03-01T14:18:50;8.97;;;7.57;;
7493;SDS011;3788;49.902;8.590;2023-03-01T14:21:23;10.73;;;8.00;;
7493;SDS011;3788;49.902;8.590;2023-03-01T14:23:51;10.67;;;7.80;;
7493;SDS011;3788;49.902;8.590;2023-03-01T14:26:19;10.93;;;7.77;;
7493;SDS011;3788;49.902;8.590;2023-03-01T14:28:47;8.50;;;6.70;;
7493;SDS011;3788;49.902;8.590;2023-03-01T14:34:16;8.20;;;6.57;;
7493;SDS011;3788;49.902;8.590;2023-03-01T14:36:45;11.23;;;7.43;;
7493;SDS011;3788;49.902;8.590;2023-03-01T14:39:16;7.37;;;6.63;;
7493;SDS011;3788;49.902;8.590;2023-03-01T14:41:43;8.07;;;6.67;;
7493;SDS011;3788;49.902;8.590;2023-03-01T14:44:12;8.13;;;6.23;;
7493;SDS011;3788;49.902;8.590;2023-03-01T14:46:45;9.67;;;6.40;;
7493;SDS011;3788;49.902;8.590;2023-03-01T14:49:13;8.07;;;6.17;;
7493;SDS011;3788;49.902;8.590;2023-03-01T14:51:43;10.83;;;6.57;;
7493;SDS011;3788;49.902;8.590;2023-03-01T14:54:19;10.07;;;6.90;;
7493;SDS011;3788;49.902;8.590;2023-03-01T14:56:50;10.00;;;7.27;;
7493;SDS011;3788;49.902;8.590;2023-03-01T14:59:19;10.37;;;7.37;;
7493;SDS011;3788;49.902;8.590;2023-03-01T15:01:49;9.37;;;6.90;;
7493;SDS011;3788;49.902;8.590;2023-03-01T15:04:16;8.63;;;7.17;;
7493;SDS011;3788;49.902;8.590;2023-03-01T15:06:45;9.67;;;6.50;;
7493;SDS011;3788;49.902;8.590;2023-03-01T15:09:14;8.53;;;6.80;;
7493;SDS011;3788;49.902;8.590;2023-03-01T15:11:42;9.57;;;6.70;;
7493;SDS011;3788;49.902;8.590;2023-03-01T15:14:25;10.10;;;6.77;;
7493;SDS011;3788;49.902;8.590;2023-03-01T15:16:55;10.33;;;7.17;;
7493;SDS011;3788;49.902;8.590;2023-03-01T15:19:23;7.80;;;6.37;;
7493;SDS011;3788;49.902;8.590;2023-03-01T15:21:53;9.63;;;6.90;;
7493;SDS011;3788;49.902;8.590;2023-03-01T15:24:23;8.73;;;6.83;;
7493;SDS011;3788;49.902;8.590;2023-03-01T15:26:51;9.60;;;6.97;;
7493;SDS011;3788;49.902;8.590;2023-03-01T15:29:21;7.67;;;6.23;;